Terminal Aerodrome Forecast
Issued by NWS

Home | Current Version | Previous Version | Text Only | Print | Product List | Glossary On
Versions: 1 2 3 4 5 6 7 8 9 10 11 12 13 14 15 16 17 18 19
000
FTUS41 KPBZ 231600 AAA
TAFBVI
TAF AMD
KBVI 231602Z 2316/2412 31009G16KT P6SM VCSH BKN024 OVC030
     FM231800 31012KT P6SM BKN035
     FM240300 33006KT P6SM SCT035=

USA.gov is the U.S. government's official web portal to all federal, state and local government web resources and services.